createdAt,value
2019-05-02T00:02:01.373Z,97084.00
2019-05-02T00:04:32.695Z,97075.00
2019-05-02T00:09:47.709Z,97073.00
2019-05-02T00:12:18.381Z,97070.00
2019-05-02T00:14:49.853Z,97064.00
2019-05-02T00:17:25.537Z,97065.00
2019-05-02T00:19:56.166Z,97061.00
2019-05-02T00:22:27.495Z,97057.00
2019-05-02T00:24:58.941Z,97049.00
2019-05-02T00:27:32.803Z,97053.00
2019-05-02T00:30:03.329Z,97045.00
2019-05-02T00:32:35.329Z,97052.00
2019-05-02T00:35:07.945Z,97041.00
2019-05-02T00:37:39.382Z,97055.00
2019-05-02T00:40:10.788Z,97036.00
2019-05-02T00:42:43.165Z,97043.00
2019-05-02T00:45:18.722Z,97033.00
2019-05-02T00:47:53.816Z,97033.00
2019-05-02T00:50:26.352Z,97027.00
2019-05-02T00:52:57.793Z,97025.00
2019-05-02T00:55:33.753Z,97031.00
2019-05-02T00:58:02.171Z,97018.00
2019-05-02T01:00:42.338Z,97020.00
2019-05-02T01:03:16.258Z,97015.00
2019-05-02T01:05:46.701Z,97007.00
2019-05-02T01:08:18.059Z,97013.00
2019-05-02T01:10:52.069Z,97000.00
2019-05-02T01:13:22.550Z,97012.00
2019-05-02T01:15:53.894Z,96993.00
2019-05-02T01:18:25.248Z,96991.00
2019-05-02T01:20:58.164Z,97010.00
2019-05-02T01:23:29.661Z,97010.00
2019-05-02T01:26:01.008Z,97000.00
2019-05-02T01:28:55.608Z,96996.00
2019-05-02T01:31:49.892Z,97004.00
2019-05-02T01:34:41.579Z,96992.00
2019-05-02T01:37:34.708Z,97000.00
2019-05-02T01:40:06.528Z,96989.00
2019-05-02T01:42:40.102Z,96988.00
2019-05-02T01:45:12.475Z,97003.00
2019-05-02T01:47:44.028Z,96993.00
2019-05-02T01:50:15.672Z,97005.00
2019-05-02T01:52:46.981Z,96999.00
2019-05-02T01:55:21.208Z,96982.00
2019-05-02T01:57:51.509Z,96996.00
2019-05-02T02:00:22.903Z,96977.00
2019-05-02T02:02:54.212Z,96979.00
2019-05-02T02:05:27.638Z,96973.00
2019-05-02T02:07:58.591Z,96978.00
2019-05-02T02:10:30.031Z,96968.00
2019-05-02T02:13:04.814Z,96974.00
2019-05-02T02:15:34.391Z,96973.00
2019-05-02T02:18:06.502Z,96966.00
2019-05-02T02:20:56.783Z,96957.00
2019-05-02T02:23:44.973Z,96951.00
2019-05-02T02:26:16.526Z,96957.00
2019-05-02T02:28:47.845Z,96955.00
2019-05-02T02:31:22.223Z,96954.00
2019-05-02T02:33:53.592Z,96954.00
2019-05-02T02:36:31.531Z,96968.00
2019-05-02T02:38:58.016Z,96964.00
2019-05-02T02:41:29.344Z,96958.00
2019-05-02T02:44:10.473Z,96973.00
2019-05-02T02:46:43.755Z,96958.00
2019-05-02T02:49:21.801Z,96962.00
2019-05-02T02:51:48.231Z,96968.00
2019-05-02T02:54:19.549Z,96956.00
2019-05-02T02:56:50.976Z,96959.00
2019-05-02T02:59:26.360Z,96958.00
2019-05-02T03:01:55.405Z,96954.00
2019-05-02T03:04:26.738Z,96959.00
2019-05-02T03:06:58.058Z,96954.00
2019-05-02T03:09:29.385Z,96940.00
2019-05-02T03:12:18.616Z,96953.00
2019-05-02T03:14:54.439Z,96945.00
2019-05-02T03:17:28.437Z,96943.00
2019-05-02T03:20:01.162Z,96933.00
2019-05-02T03:22:34.812Z,96936.00
2019-05-02T03:25:05.619Z,96941.00
2019-05-02T03:27:40.226Z,96937.00
2019-05-02T03:30:29.176Z,96933.00
2019-05-02T03:33:03.396Z,96940.00
2019-05-02T03:35:18.767Z,96931.00
2019-05-02T03:37:51.358Z,96938.00
2019-05-02T03:40:23.132Z,96932.00
2019-05-02T03:42:54.612Z,96933.00
2019-05-02T03:45:32.306Z,96936.00
2019-05-02T03:47:59.173Z,96933.00
2019-05-02T03:50:32.475Z,96925.00
2019-05-02T03:53:03.799Z,96931.00
2019-05-02T03:55:35.529Z,96925.00
2019-05-02T03:58:14.326Z,96927.00
2019-05-02T04:00:39.949Z,96929.00
2019-05-02T04:03:11.781Z,96935.00
2019-05-02T04:05:43.190Z,96933.00
2019-05-02T04:08:20.717Z,96931.00
2019-05-02T04:11:32.887Z,96939.00
2019-05-02T04:14:00.379Z,96944.00
2019-05-02T04:16:31.917Z,96937.00
2019-05-02T04:19:04.477Z,96931.00
2019-05-02T04:21:37.009Z,96932.00
2019-05-02T04:24:13.400Z,96929.00
2019-05-02T04:26:52.062Z,96934.00
2019-05-02T04:29:16.902Z,96936.00
2019-05-02T04:31:48.347Z,96927.00
2019-05-02T04:34:19.669Z,96925.00
2019-05-02T04:36:59.405Z,96934.00
2019-05-02T04:39:24.073Z,96922.00
2019-05-02T04:41:58.412Z,96929.00
2019-05-02T04:44:29.738Z,96921.00
2019-05-02T04:47:13.741Z,96932.00
2019-05-02T04:49:36.255Z,96937.00
2019-05-02T04:52:11.612Z,96939.00
2019-05-02T04:54:40.751Z,96940.00
2019-05-02T04:57:12.070Z,96937.00
2019-05-02T04:59:43.419Z,96941.00
2019-05-02T05:02:21.299Z,96947.00
2019-05-02T05:04:49.432Z,96932.00
2019-05-02T05:07:22.094Z,96937.00
2019-05-02T05:09:58.343Z,96938.00
2019-05-02T05:12:27.785Z,96947.00
2019-05-02T05:15:00.410Z,96939.00
2019-05-02T05:17:34.028Z,96948.00
2019-05-02T05:20:10.705Z,96953.00
2019-05-02T05:22:44.273Z,96945.00
2019-05-02T05:25:17.740Z,96953.00
2019-05-02T05:27:52.782Z,96951.00
2019-05-02T05:30:23.247Z,96952.00
2019-05-02T05:32:54.595Z,96939.00
2019-05-02T05:35:27.724Z,96955.00
2019-05-02T05:37:59.071Z,96949.00
2019-05-02T05:40:32.101Z,96954.00
2019-05-02T05:43:12.108Z,96951.00
2019-05-02T05:45:48.760Z,96953.00
2019-05-02T05:48:09.558Z,96949.00
2019-05-02T05:50:41.491Z,96946.00
2019-05-02T05:53:17.271Z,96945.00
2019-05-02T05:55:47.377Z,96938.00
2019-05-02T05:58:19.825Z,96940.00
2019-05-02T06:00:55.421Z,96941.00
2019-05-02T06:03:24.199Z,96945.00
2019-05-02T06:05:57.588Z,96952.00
2019-05-02T06:08:28.791Z,96935.00
2019-05-02T06:11:00.142Z,96938.00
2019-05-02T06:13:31.515Z,96938.00
2019-05-02T06:16:03.407Z,96944.00
2019-05-02T06:18:36.223Z,96939.00
2019-05-02T06:21:09.237Z,96942.00
2019-05-02T06:23:41.673Z,96939.00
2019-05-02T06:26:15.213Z,96950.00
2019-05-02T06:28:46.172Z,96945.00
2019-05-02T06:31:17.548Z,96936.00
2019-05-02T06:33:48.934Z,96938.00
2019-05-02T06:36:20.287Z,96937.00
2019-05-02T06:38:56.756Z,96930.00
2019-05-02T06:41:27.774Z,96934.00
2019-05-02T06:43:59.157Z,96941.00
2019-05-02T06:46:31.563Z,96936.00
2019-05-02T06:49:03.035Z,96932.00
2019-05-02T06:51:34.401Z,96935.00
2019-05-02T06:54:05.951Z,96937.00
2019-05-02T06:56:37.394Z,96923.00
2019-05-02T06:59:13.144Z,96929.00
2019-05-02T07:01:41.971Z,96932.00
2019-05-02T07:04:17.421Z,96916.00
2019-05-02T07:06:58.178Z,96917.00
2019-05-02T07:09:19.627Z,96921.00
2019-05-02T07:11:57.319Z,96915.00
2019-05-02T07:14:25.626Z,96910.00
2019-05-02T07:17:05.710Z,96925.00
2019-05-02T07:19:40.592Z,96920.00
2019-05-02T07:22:11.935Z,96920.00
2019-05-02T07:24:43.309Z,96916.00
2019-05-02T07:27:14.690Z,96919.00
2019-05-02T07:29:46.094Z,96911.00
2019-05-02T07:32:19.330Z,96918.00
2019-05-02T07:34:50.488Z,96912.00
2019-05-02T07:37:21.833Z,96914.00
2019-05-02T07:39:53.254Z,96916.00
2019-05-02T07:42:24.665Z,96913.00
2019-05-02T07:44:56.043Z,96912.00
2019-05-02T07:47:28.955Z,96912.00
2019-05-02T07:50:00.520Z,96909.00
2019-05-02T07:52:33.752Z,96916.00
2019-05-02T07:55:07.390Z,96916.00
2019-05-02T07:57:38.658Z,96917.00
2019-05-02T08:00:11.733Z,96921.00
2019-05-02T08:02:43.084Z,96910.00
2019-05-02T08:05:21.363Z,96915.00
2019-05-02T08:07:53.391Z,96923.00
2019-05-02T08:10:23.883Z,96918.00
2019-05-02T08:12:54.578Z,96916.00
2019-05-02T08:15:25.932Z,96919.00
2019-05-02T08:17:57.397Z,96913.00
2019-05-02T08:20:28.741Z,96915.00
2019-05-02T08:23:00.110Z,96919.00
2019-05-02T08:25:31.513Z,96898.00
2019-05-02T08:28:21.762Z,96901.00
2019-05-02T08:30:56.236Z,96902.00
2019-05-02T08:33:29.269Z,96907.00
2019-05-02T08:36:00.737Z,96913.00
2019-05-02T08:38:32.086Z,96896.00
2019-05-02T08:41:03.464Z,96906.00
2019-05-02T08:43:34.903Z,96902.00
2019-05-02T08:46:09.390Z,96889.00
2019-05-02T08:48:41.999Z,96892.00
2019-05-02T08:51:12.510Z,96890.00
2019-05-02T08:53:43.935Z,96888.00
2019-05-02T08:56:16.502Z,96899.00
2019-05-02T08:58:49.820Z,96893.00
2019-05-02T09:01:33.987Z,96886.00
2019-05-02T09:03:56.585Z,96899.00
2019-05-02T09:06:27.525Z,96891.00
2019-05-02T09:08:58.970Z,96886.00
2019-05-02T09:11:30.303Z,96880.00
2019-05-02T09:14:02.161Z,96881.00
2019-05-02T09:16:33.442Z,96872.00
2019-05-02T09:19:04.875Z,96880.00
2019-05-02T09:21:36.233Z,96871.00
2019-05-02T09:24:08.498Z,96864.00
2019-05-02T09:26:42.527Z,96879.00
2019-05-02T09:29:13.718Z,96870.00
2019-05-02T09:31:46.164Z,96873.00
2019-05-02T09:34:22.956Z,96871.00
2019-05-02T09:36:52.779Z,96870.00
2019-05-02T09:39:27.370Z,96862.00
2019-05-02T09:41:56.976Z,96867.00
2019-05-02T09:44:28.339Z,96862.00
2019-05-02T09:46:59.691Z,96862.00
2019-05-02T09:49:32.448Z,96861.00
2019-05-02T09:52:03.956Z,96863.00
2019-05-02T09:54:37.135Z,96860.00
2019-05-02T09:57:08.772Z,96853.00
2019-05-02T09:59:43.463Z,96847.00
2019-05-02T10:02:13.197Z,96845.00
2019-05-02T10:04:44.564Z,96849.00
2019-05-02T10:07:15.996Z,96844.00
2019-05-02T10:09:48.522Z,96843.00
2019-05-02T10:12:19.920Z,96839.00
2019-05-02T10:14:52.687Z,96830.00
2019-05-02T10:17:24.949Z,96840.00
2019-05-02T10:19:57.292Z,96837.00
2019-05-02T10:22:32.275Z,96829.00
2019-05-02T10:25:02.555Z,96823.00
2019-05-02T10:27:38.454Z,96821.00
2019-05-02T10:30:15.291Z,96838.00
2019-05-02T10:32:42.785Z,96820.00
2019-05-02T10:35:16.798Z,96832.00
2019-05-02T10:37:48.203Z,96818.00
2019-05-02T10:40:19.545Z,96804.00
2019-05-02T10:42:52.234Z,96813.00
2019-05-02T10:45:23.727Z,96820.00
2019-05-02T10:47:55.063Z,96817.00
2019-05-02T10:50:32.970Z,96815.00
2019-05-02T10:53:11.241Z,96813.00
2019-05-02T10:55:38.467Z,96800.00
2019-05-02T10:58:09.856Z,96802.00
2019-05-02T11:00:45.116Z,96779.00
2019-05-02T11:03:43.759Z,96791.00
2019-05-02T11:06:15.661Z,96802.00
2019-05-02T11:08:47.005Z,96797.00
2019-05-02T11:11:18.529Z,96799.00
2019-05-02T11:14:14.869Z,96793.00
2019-05-02T11:16:57.147Z,96791.00
2019-05-02T11:19:42.007Z,96791.00
2019-05-02T11:22:13.563Z,96781.00
2019-05-02T11:24:45.017Z,96789.00
2019-05-02T11:27:16.359Z,96785.00
2019-05-02T11:29:47.701Z,96768.00
2019-05-02T11:32:19.110Z,96780.00
2019-05-02T11:34:52.289Z,96770.00
2019-05-02T11:37:23.535Z,96765.00
2019-05-02T11:40:00.124Z,96763.00
2019-05-02T11:42:32.344Z,96766.00
2019-05-02T11:45:04.345Z,96763.00
2019-05-02T11:47:35.715Z,96766.00
2019-05-02T11:50:07.291Z,96771.00
2019-05-02T11:52:38.662Z,96767.00
2019-05-02T11:55:10.123Z,96762.00
2019-05-02T11:57:42.552Z,96767.00
2019-05-02T12:00:14.662Z,96764.00
2019-05-02T12:03:05.161Z,96755.00
2019-05-02T12:05:41.939Z,96760.00
2019-05-02T12:08:13.470Z,96751.00
2019-05-02T12:10:45.006Z,96756.00
2019-05-02T12:13:16.406Z,96756.00
2019-05-02T12:15:47.769Z,96754.00
2019-05-02T12:18:21.169Z,96761.00
2019-05-02T12:20:52.299Z,96748.00
2019-05-02T12:23:23.698Z,96755.00
2019-05-02T12:25:55.446Z,96749.00
2019-05-02T12:28:26.799Z,96747.00
2019-05-02T12:30:58.162Z,96744.00
2019-05-02T12:33:33.691Z,96762.00
2019-05-02T12:36:08.270Z,96757.00
2019-05-02T12:38:42.037Z,96750.00
2019-05-02T12:41:22.277Z,96751.00
2019-05-02T12:43:46.632Z,96753.00
2019-05-02T12:46:18.025Z,96751.00
2019-05-02T12:48:49.422Z,96754.00
2019-05-02T12:51:22.510Z,96749.00
2019-05-02T12:53:54.075Z,96757.00
2019-05-02T12:56:25.405Z,96757.00
2019-05-02T12:58:56.859Z,96754.00
2019-05-02T13:01:28.280Z,96762.00
2019-05-02T13:04:12.398Z,96753.00
2019-05-02T13:06:43.948Z,96753.00
2019-05-02T13:09:16.306Z,96741.00
2019-05-02T13:12:00.215Z,96747.00
2019-05-02T13:14:32.524Z,96749.00
2019-05-02T13:17:05.770Z,96736.00
2019-05-02T13:19:41.214Z,96745.00
2019-05-02T13:22:32.579Z,96740.00
2019-05-02T13:25:12.809Z,96729.00
2019-05-02T13:27:48.024Z,96734.00
2019-05-02T13:30:46.221Z,96733.00
2019-05-02T13:33:22.750Z,96736.00
2019-05-02T13:35:56.823Z,96721.00
2019-05-02T13:38:28.543Z,96713.00
2019-05-02T13:40:59.991Z,96704.00
2019-05-02T13:43:37.017Z,96706.00
2019-05-02T13:46:13.661Z,96712.00
2019-05-02T13:48:46.093Z,96707.00
2019-05-02T13:51:18.326Z,96718.00
2019-05-02T13:53:56.036Z,96707.00
2019-05-02T13:56:46.342Z,96713.00
2019-05-02T13:59:19.334Z,96704.00
2019-05-02T14:01:53.825Z,96695.00
2019-05-02T14:04:25.463Z,96701.00
2019-05-02T14:06:56.811Z,96681.00
2019-05-02T14:09:58.150Z,96679.00
2019-05-02T14:12:58.989Z,96688.00
2019-05-02T14:15:37.786Z,96680.00
2019-05-02T14:18:09.279Z,96678.00
2019-05-02T14:20:42.640Z,96671.00
2019-05-02T14:23:13.877Z,96667.00
2019-05-02T14:25:46.329Z,96680.00
2019-05-02T14:28:17.752Z,96670.00
2019-05-02T14:30:49.131Z,96660.00
2019-05-02T14:33:23.414Z,96659.00
2019-05-02T14:35:54.812Z,96660.00
2019-05-02T14:38:26.157Z,96655.00
2019-05-02T14:41:06.447Z,96657.00
2019-05-02T14:43:55.248Z,96650.00
2019-05-02T14:46:35.398Z,96653.00
2019-05-02T14:49:00.107Z,96657.00
2019-05-02T14:51:33.054Z,96642.00
2019-05-02T14:54:08.369Z,96653.00
2019-05-02T14:57:03.279Z,96635.00
2019-05-02T14:59:34.628Z,96644.00
2019-05-02T15:02:09.087Z,96636.00
2019-05-02T15:04:44.604Z,96634.00
2019-05-02T15:07:17.540Z,96623.00
2019-05-02T15:09:47.485Z,96629.00
2019-05-02T15:12:19.192Z,96630.00
2019-05-02T15:14:57.435Z,96631.00
2019-05-02T15:17:28.033Z,96626.00
2019-05-02T15:19:56.773Z,96631.00
2019-05-02T15:22:33.167Z,96623.00
2019-05-02T15:25:02.836Z,96607.00
2019-05-02T15:27:41.944Z,96613.00
2019-05-02T15:30:08.969Z,96615.00
2019-05-02T15:33:05.299Z,96607.00
2019-05-02T15:35:57.373Z,96613.00
2019-05-02T15:38:28.229Z,96603.00
2019-05-02T15:41:07.010Z,96599.00
2019-05-02T15:43:32.757Z,96609.00
2019-05-02T15:46:04.159Z,96605.00
2019-05-02T15:48:35.618Z,96607.00
2019-05-02T15:51:08.922Z,96603.00
2019-05-02T15:54:05.246Z,96609.00
2019-05-02T15:56:28.030Z,96601.00
2019-05-02T15:59:04.741Z,96590.00
2019-05-02T16:01:57.205Z,96587.00
2019-05-02T16:04:33.963Z,96594.00
2019-05-02T16:07:08.369Z,96583.00
2019-05-02T16:09:38.808Z,96580.00
2019-05-02T16:12:12.045Z,96582.00
2019-05-02T16:14:43.258Z,96586.00
2019-05-02T16:17:17.638Z,96591.00
2019-05-02T16:19:52.534Z,96588.00
2019-05-02T16:22:24.519Z,96582.00
2019-05-02T16:24:56.723Z,96580.00
2019-05-02T16:27:47.392Z,96581.00
2019-05-02T16:30:23.177Z,96576.00
2019-05-02T16:32:59.359Z,96584.00
2019-05-02T16:35:32.455Z,96579.00
2019-05-02T16:38:03.827Z,96574.00
2019-05-02T16:40:35.212Z,96574.00
2019-05-02T16:43:07.271Z,96576.00
2019-05-02T16:45:39.141Z,96567.00
2019-05-02T16:48:12.017Z,96577.00
2019-05-02T16:50:45.060Z,96578.00
2019-05-02T16:53:17.223Z,96577.00
2019-05-02T16:55:49.682Z,96577.00
2019-05-02T16:58:21.115Z,96564.00
2019-05-02T17:00:52.897Z,96563.00
2019-05-02T17:03:26.341Z,96566.00
2019-05-02T17:05:57.386Z,96567.00
2019-05-02T17:08:44.447Z,96568.00
2019-05-02T17:11:27.754Z,96570.00
2019-05-02T17:14:02.146Z,96560.00
2019-05-02T17:16:33.425Z,96567.00
2019-05-02T17:19:04.995Z,96568.00
2019-05-02T17:21:52.463Z,96566.00
2019-05-02T17:24:09.446Z,96568.00
2019-05-02T17:26:42.280Z,96564.00
2019-05-02T17:29:16.399Z,96564.00
2019-05-02T17:31:50.081Z,96560.00
2019-05-02T17:34:23.039Z,96566.00
2019-05-02T17:36:52.929Z,96557.00
2019-05-02T17:39:24.407Z,96565.00
2019-05-02T17:41:55.802Z,96570.00
2019-05-02T17:44:28.198Z,96573.00
2019-05-02T17:47:01.659Z,96569.00
2019-05-02T17:49:36.537Z,96581.00
2019-05-02T17:52:40.263Z,96577.00
2019-05-02T17:55:12.215Z,96572.00
2019-05-02T17:57:43.635Z,96576.00
2019-05-02T18:00:21.221Z,96575.00
2019-05-02T18:02:53.356Z,96580.00
2019-05-02T18:05:26.528Z,96576.00
2019-05-02T18:07:57.929Z,96580.00
2019-05-02T18:10:33.514Z,96581.00
2019-05-02T18:13:05.307Z,96597.00
2019-05-02T18:15:36.711Z,96598.00
2019-05-02T18:18:08.112Z,96589.00
2019-05-02T18:20:42.881Z,96597.00
2019-05-02T18:23:12.552Z,96595.00
2019-05-02T18:25:44.067Z,96601.00
2019-05-02T18:28:24.905Z,96590.00
2019-05-02T18:30:50.062Z,96588.00
2019-05-02T18:33:22.758Z,96595.00
2019-05-02T18:35:54.147Z,96608.00
2019-05-02T18:38:26.568Z,96601.00
2019-05-02T18:41:00.269Z,96601.00
2019-05-02T18:43:31.547Z,96599.00
2019-05-02T18:46:07.582Z,96610.00
2019-05-02T18:48:36.666Z,96611.00
2019-05-02T18:51:09.127Z,96600.00
2019-05-02T18:53:42.239Z,96605.00
2019-05-02T18:56:13.824Z,96619.00
2019-05-02T18:58:45.458Z,96608.00
2019-05-02T19:01:18.489Z,96605.00
2019-05-02T19:03:52.522Z,96610.00
2019-05-02T19:06:23.115Z,96614.00
2019-05-02T19:08:59.228Z,96613.00
2019-05-02T19:11:31.969Z,96620.00
2019-05-02T19:14:03.949Z,96622.00
2019-05-02T19:16:35.334Z,96616.00
2019-05-02T19:19:06.701Z,96626.00
2019-05-02T19:21:39.530Z,96630.00
2019-05-02T19:24:12.967Z,96622.00
2019-05-02T19:26:49.418Z,96627.00
2019-05-02T19:29:28.264Z,96630.00
2019-05-02T19:31:59.742Z,96622.00
2019-05-02T19:34:32.387Z,96633.00
2019-05-02T19:37:04.624Z,96635.00
2019-05-02T19:39:39.012Z,96633.00
2019-05-02T19:42:12.306Z,96632.00
2019-05-02T19:44:43.734Z,96627.00
2019-05-02T19:47:17.521Z,96627.00
2019-05-02T19:49:52.262Z,96641.00
2019-05-02T19:52:22.163Z,96637.00
2019-05-02T19:54:53.658Z,96641.00
2019-05-02T19:57:26.361Z,96634.00
2019-05-02T20:00:02.744Z,96647.00
2019-05-02T20:02:32.668Z,96652.00
2019-05-02T20:05:04.300Z,96647.00
2019-05-02T20:07:36.741Z,96645.00
2019-05-02T20:10:08.490Z,96644.00
2019-05-02T20:12:47.474Z,96647.00
2019-05-02T20:15:16.995Z,96654.00
2019-05-02T20:17:48.180Z,96638.00
2019-05-02T20:20:52.133Z,96640.00
2019-05-02T20:23:30.743Z,96651.00
2019-05-02T20:25:56.621Z,96641.00
2019-05-02T20:28:28.196Z,96640.00
2019-05-02T20:30:59.521Z,96647.00
2019-05-02T20:33:32.550Z,96644.00
2019-05-02T20:36:04.295Z,96650.00
2019-05-02T20:38:35.665Z,96650.00
2019-05-02T20:41:07.177Z,96654.00
2019-05-02T20:43:38.554Z,96643.00
2019-05-02T20:46:11.995Z,96646.00
2019-05-02T20:48:43.166Z,96643.00
2019-05-02T20:51:14.498Z,96648.00
2019-05-02T20:53:45.864Z,96647.00
2019-05-02T20:56:17.224Z,96641.00
2019-05-02T20:58:48.720Z,96649.00
2019-05-02T21:01:20.039Z,96641.00
2019-05-02T21:03:52.170Z,96639.00
2019-05-02T21:06:55.650Z,96640.00
2019-05-02T21:09:48.840Z,96637.00
2019-05-02T21:12:20.284Z,96621.00
2019-05-02T21:14:52.321Z,96651.00
2019-05-02T21:17:23.822Z,96656.00
2019-05-02T21:19:55.273Z,96648.00
2019-05-02T21:22:29.770Z,96657.00
2019-05-02T21:25:02.472Z,96644.00
2019-05-02T21:27:33.995Z,96646.00
2019-05-02T21:30:06.970Z,96645.00
2019-05-02T21:32:38.356Z,96646.00
2019-05-02T21:35:11.925Z,96669.00
2019-05-02T21:37:43.299Z,96667.00
2019-05-02T21:40:14.948Z,96669.00
2019-05-02T21:42:46.347Z,96660.00
2019-05-02T21:45:17.885Z,96659.00
2019-05-02T21:47:49.271Z,96663.00
2019-05-02T21:50:34.423Z,96660.00
2019-05-02T21:53:24.132Z,96662.00
2019-05-02T21:56:07.359Z,96661.00
2019-05-02T21:58:38.741Z,96647.00
2019-05-02T22:01:13.126Z,96664.00
2019-05-02T22:03:44.486Z,96668.00
2019-05-02T22:06:15.856Z,96667.00
2019-05-02T22:08:47.195Z,96672.00
2019-05-02T22:11:18.668Z,96685.00
2019-05-02T22:13:51.680Z,96677.00
2019-05-02T22:16:25.228Z,96699.00
2019-05-02T22:18:56.566Z,96689.00
2019-05-02T22:21:27.940Z,96689.00
2019-05-02T22:24:10.396Z,96697.00
2019-05-02T22:26:32.722Z,96700.00
2019-05-02T22:29:04.167Z,96715.00
2019-05-02T22:31:35.513Z,96708.00
2019-05-02T22:34:07.985Z,96708.00
2019-05-02T22:36:39.334Z,96727.00
2019-05-02T22:39:31.781Z,96729.00
2019-05-02T22:42:04.569Z,96727.00
2019-05-02T22:44:36.123Z,96725.00
2019-05-02T22:47:07.568Z,96724.00
2019-05-02T22:49:38.893Z,96726.00
2019-05-02T22:52:12.140Z,96723.00
2019-05-02T22:54:43.345Z,96735.00
2019-05-02T22:57:14.688Z,96723.00
2019-05-02T22:59:45.992Z,96719.00
2019-05-02T23:02:17.347Z,96724.00
2019-05-02T23:04:48.677Z,96739.00
2019-05-02T23:07:22.043Z,96728.00
2019-05-02T23:09:53.091Z,96725.00
2019-05-02T23:12:25.034Z,96732.00
2019-05-02T23:14:56.553Z,96732.00
2019-05-02T23:17:27.946Z,96733.00
2019-05-02T23:19:59.295Z,96726.00
2019-05-02T23:22:32.354Z,96724.00
2019-05-02T23:25:42.562Z,96713.00
2019-05-02T23:28:22.166Z,96725.00
2019-05-02T23:30:54.436Z,96709.00
2019-05-02T23:33:29.181Z,96724.00
2019-05-02T23:36:01.997Z,96711.00
2019-05-02T23:38:33.435Z,96708.00
2019-05-02T23:41:04.835Z,96711.00
2019-05-02T23:43:36.191Z,96707.00
2019-05-02T23:46:07.560Z,96694.00
2019-05-02T23:48:38.883Z,96697.00
2019-05-02T23:51:12.031Z,96704.00
2019-05-02T23:53:43.491Z,96699.00
2019-05-02T23:56:14.861Z,96708.00
2019-05-02T23:58:46.203Z,96700.00
